sensor_id;sensor_type;location;lat;lon;timestamp;pressure;altitude;pressure_sealevel;temperature;humidity
59873;BME280;50750;51.636;4.948;2023-03-25T00:00:07;100341.86;;;14.60;63.30
59873;BME280;50750;51.636;4.948;2023-03-25T00:03:04;100339.58;;;14.60;63.24
59873;BME280;50750;51.636;4.948;2023-03-25T00:05:30;100345.41;;;14.60;63.36
59873;BME280;50750;51.636;4.948;2023-03-25T00:07:57;100345.05;;;14.60;63.32
59873;BME280;50750;51.636;4.948;2023-03-25T00:10:24;100345.75;;;14.60;63.34
59873;BME280;50750;51.636;4.948;2023-03-25T00:12:50;100345.44;;;14.59;63.22
59873;BME280;50750;51.636;4.948;2023-03-25T00:15:17;100344.94;;;14.59;63.29
59873;BME280;50750;51.636;4.948;2023-03-25T00:17:43;100350.77;;;14.58;63.50
59873;BME280;50750;51.636;4.948;2023-03-25T00:20:10;100349.27;;;14.57;63.33
59873;BME280;50750;51.636;4.948;2023-03-25T00:22:38;100345.60;;;14.56;63.28
59873;BME280;50750;51.636;4.948;2023-03-25T00:25:12;100348.80;;;14.56;63.42
59873;BME280;50750;51.636;4.948;2023-03-25T00:27:42;100344.58;;;14.55;63.36
59873;BME280;50750;51.636;4.948;2023-03-25T00:30:12;100338.77;;;14.55;63.45
59873;BME280;50750;51.636;4.948;2023-03-25T00:32:39;100341.55;;;14.56;63.43
59873;BME280;50750;51.636;4.948;2023-03-25T00:35:06;100335.73;;;14.56;63.36
59873;BME280;50750;51.636;4.948;2023-03-25T00:37:33;100336.59;;;14.57;63.43
59873;BME280;50750;51.636;4.948;2023-03-25T00:40:00;100336.58;;;14.57;63.38
59873;BME280;50750;51.636;4.948;2023-03-25T00:42:26;100333.91;;;14.57;63.32
59873;BME280;50750;51.636;4.948;2023-03-25T00:44:53;100337.46;;;14.57;63.22
59873;BME280;50750;51.636;4.948;2023-03-25T00:47:20;100338.47;;;14.58;63.13
59873;BME280;50750;51.636;4.948;2023-03-25T00:49:48;100337.45;;;14.57;63.27
59873;BME280;50750;51.636;4.948;2023-03-25T00:52:15;100339.94;;;14.56;63.22
59873;BME280;50750;51.636;4.948;2023-03-25T00:54:43;100338.90;;;14.56;63.22
59873;BME280;50750;51.636;4.948;2023-03-25T00:57:10;100332.06;;;14.56;63.21
59873;BME280;50750;51.636;4.948;2023-03-25T00:59:37;100329.26;;;14.55;63.31
59873;BME280;50750;51.636;4.948;2023-03-25T01:02:04;100323.84;;;14.55;63.08
59873;BME280;50750;51.636;4.948;2023-03-25T01:04:33;100330.96;;;14.53;63.12
59873;BME280;50750;51.636;4.948;2023-03-25T01:07:00;100333.60;;;14.53;63.28
59873;BME280;50750;51.636;4.948;2023-03-25T01:09:27;100332.76;;;14.52;63.22
59873;BME280;50750;51.636;4.948;2023-03-25T01:11:53;100337.19;;;14.52;63.38
59873;BME280;50750;51.636;4.948;2023-03-25T01:14:21;100332.04;;;14.53;63.37
59873;BME280;50750;51.636;4.948;2023-03-25T01:16:54;100332.70;;;14.54;63.23
59873;BME280;50750;51.636;4.948;2023-03-25T01:19:22;100333.20;;;14.54;63.25
59873;BME280;50750;51.636;4.948;2023-03-25T01:21:48;100329.25;;;14.55;63.13
59873;BME280;50750;51.636;4.948;2023-03-25T01:24:16;100334.33;;;14.56;63.32
59873;BME280;50750;51.636;4.948;2023-03-25T01:26:43;100333.61;;;14.56;63.31
59873;BME280;50750;51.636;4.948;2023-03-25T01:29:16;100330.40;;;14.57;63.04
59873;BME280;50750;51.636;4.948;2023-03-25T01:31:43;100332.88;;;14.57;62.99
59873;BME280;50750;51.636;4.948;2023-03-25T01:34:10;100328.66;;;14.57;62.82
59873;BME280;50750;51.636;4.948;2023-03-25T01:36:36;100327.96;;;14.56;62.90
59873;BME280;50750;51.636;4.948;2023-03-25T01:39:06;100327.98;;;14.56;62.98
59873;BME280;50750;51.636;4.948;2023-03-25T01:41:35;100324.49;;;14.55;62.68
59873;BME280;50750;51.636;4.948;2023-03-25T01:46:43;100328.14;;;14.53;62.80
59873;BME280;50750;51.636;4.948;2023-03-25T01:49:22;100320.06;;;14.53;62.87
59873;BME280;50750;51.636;4.948;2023-03-25T01:51:56;100317.10;;;14.52;62.82
59873;BME280;50750;51.636;4.948;2023-03-25T01:54:25;100319.45;;;14.51;63.04
59873;BME280;50750;51.636;4.948;2023-03-25T01:56:53;100321.94;;;14.50;62.95
59873;BME280;50750;51.636;4.948;2023-03-25T01:59:25;100321.65;;;14.49;62.94
59873;BME280;50750;51.636;4.948;2023-03-25T02:01:55;100318.89;;;14.48;63.00
59873;BME280;50750;51.636;4.948;2023-03-25T02:04:38;100317.02;;;14.47;62.98
59873;BME280;50750;51.636;4.948;2023-03-25T02:07:06;100313.50;;;14.47;62.93
59873;BME280;50750;51.636;4.948;2023-03-25T02:09:35;100312.40;;;14.47;62.99
59873;BME280;50750;51.636;4.948;2023-03-25T02:12:02;100319.42;;;14.48;62.93
59873;BME280;50750;51.636;4.948;2023-03-25T02:14:31;100311.30;;;14.48;62.98
59873;BME280;50750;51.636;4.948;2023-03-25T02:17:24;100304.55;;;14.49;63.08
59873;BME280;50750;51.636;4.948;2023-03-25T02:30:51;100299.61;;;14.50;63.21
59873;BME280;50750;51.636;4.948;2023-03-25T02:36:24;100301.27;;;14.48;63.18
59873;BME280;50750;51.636;4.948;2023-03-25T02:39:03;100300.96;;;14.47;63.07
59873;BME280;50750;51.636;4.948;2023-03-25T02:41:45;100299.61;;;14.46;63.16
59873;BME280;50750;51.636;4.948;2023-03-25T02:46:55;100294.77;;;14.45;63.20
59873;BME280;50750;51.636;4.948;2023-03-25T02:49:33;100294.46;;;14.44;63.38
59873;BME280;50750;51.636;4.948;2023-03-25T02:52:36;100293.23;;;14.44;63.18
59873;BME280;50750;51.636;4.948;2023-03-25T02:55:07;100293.36;;;14.44;63.26
59873;BME280;50750;51.636;4.948;2023-03-25T02:57:39;100296.33;;;14.45;63.18
59873;BME280;50750;51.636;4.948;2023-03-25T03:00:09;100290.48;;;14.46;63.00
59873;BME280;50750;51.636;4.948;2023-03-25T03:02:54;100291.85;;;14.46;63.16
59873;BME280;50750;51.636;4.948;2023-03-25T03:05:29;100295.35;;;14.47;63.30
59873;BME280;50750;51.636;4.948;2023-03-25T03:08:25;100290.61;;;14.47;63.05
59873;BME280;50750;51.636;4.948;2023-03-25T03:11:06;100290.96;;;14.47;63.22
59873;BME280;50750;51.636;4.948;2023-03-25T03:19:38;100282.23;;;14.45;63.05
59873;BME280;50750;51.636;4.948;2023-03-25T03:24:47;100283.04;;;14.43;63.23
59873;BME280;50750;51.636;4.948;2023-03-25T03:27:18;100279.91;;;14.43;63.26
59873;BME280;50750;51.636;4.948;2023-03-25T03:29:57;100279.39;;;14.42;63.33
59873;BME280;50750;51.636;4.948;2023-03-25T03:32:40;100279.42;;;14.42;63.06
59873;BME280;50750;51.636;4.948;2023-03-25T03:36:02;100272.96;;;14.41;63.20
59873;BME280;50750;51.636;4.948;2023-03-25T03:38:37;100267.73;;;14.40;63.27
59873;BME280;50750;51.636;4.948;2023-03-25T03:41:10;100268.77;;;14.41;63.14
59873;BME280;50750;51.636;4.948;2023-03-25T03:43:57;100264.11;;;14.42;63.26
59873;BME280;50750;51.636;4.948;2023-03-25T03:46:29;100255.28;;;14.42;63.12
59873;BME280;50750;51.636;4.948;2023-03-25T03:49:00;100253.85;;;14.42;63.08
59873;BME280;50750;51.636;4.948;2023-03-25T03:51:37;100260.48;;;14.43;63.15
59873;BME280;50750;51.636;4.948;2023-03-25T03:54:27;100265.96;;;14.43;62.99
59873;BME280;50750;51.636;4.948;2023-03-25T03:57:01;100266.14;;;14.43;62.98
59873;BME280;50750;51.636;4.948;2023-03-25T03:59:39;100266.83;;;14.43;63.14
59873;BME280;50750;51.636;4.948;2023-03-25T04:02:15;100267.02;;;14.43;63.18
59873;BME280;50750;51.636;4.948;2023-03-25T04:04:50;100269.52;;;14.43;62.97
59873;BME280;50750;51.636;4.948;2023-03-25T04:07:21;100269.35;;;14.43;63.16
59873;BME280;50750;51.636;4.948;2023-03-25T04:10:15;100266.23;;;14.42;63.04
59873;BME280;50750;51.636;4.948;2023-03-25T04:12:50;100271.58;;;14.41;63.14
59873;BME280;50750;51.636;4.948;2023-03-25T04:15:18;100278.84;;;14.40;62.98
59873;BME280;50750;51.636;4.948;2023-03-25T04:17:45;100277.29;;;14.39;63.19
59873;BME280;50750;51.636;4.948;2023-03-25T04:20:19;100280.00;;;14.38;63.03
59873;BME280;50750;51.636;4.948;2023-03-25T04:22:49;100278.27;;;14.37;63.05
59873;BME280;50750;51.636;4.948;2023-03-25T04:25:17;100279.73;;;14.36;63.17
59873;BME280;50750;51.636;4.948;2023-03-25T04:27:47;100280.30;;;14.35;63.04
59873;BME280;50750;51.636;4.948;2023-03-25T04:30:19;100278.04;;;14.35;63.07
59873;BME280;50750;51.636;4.948;2023-03-25T04:32:46;100281.50;;;14.36;63.13
59873;BME280;50750;51.636;4.948;2023-03-25T04:35:14;100282.54;;;14.36;63.12
59873;BME280;50750;51.636;4.948;2023-03-25T04:37:42;100281.43;;;14.37;63.08
59873;BME280;50750;51.636;4.948;2023-03-25T04:40:11;100277.88;;;14.38;62.98
59873;BME280;50750;51.636;4.948;2023-03-25T04:42:41;100282.98;;;14.38;63.17
59873;BME280;50750;51.636;4.948;2023-03-25T04:45:09;100287.88;;;14.39;63.14
59873;BME280;50750;51.636;4.948;2023-03-25T04:47:39;100283.83;;;14.39;63.08
59873;BME280;50750;51.636;4.948;2023-03-25T04:52:44;100274.70;;;14.38;63.13
59873;BME280;50750;51.636;4.948;2023-03-25T04:55:12;100274.54;;;14.38;63.20
59873;BME280;50750;51.636;4.948;2023-03-25T04:57:48;100281.60;;;14.38;63.02
59873;BME280;50750;51.636;4.948;2023-03-25T05:00:18;100282.69;;;14.37;63.24
59873;BME280;50750;51.636;4.948;2023-03-25T05:02:50;100287.14;;;14.36;63.27
59873;BME280;50750;51.636;4.948;2023-03-25T05:05:19;100290.70;;;14.35;63.19
59873;BME280;50750;51.636;4.948;2023-03-25T05:07:47;100290.38;;;14.34;63.18
59873;BME280;50750;51.636;4.948;2023-03-25T05:10:20;100296.05;;;14.34;63.11
59873;BME280;50750;51.636;4.948;2023-03-25T05:12:48;100300.51;;;14.33;63.37
59873;BME280;50750;51.636;4.948;2023-03-25T05:15:15;100300.30;;;14.33;63.37
59873;BME280;50750;51.636;4.948;2023-03-25T05:17:43;100301.29;;;14.35;63.13
59873;BME280;50750;51.636;4.948;2023-03-25T05:20:10;100297.20;;;14.35;63.19
59873;BME280;50750;51.636;4.948;2023-03-25T05:22:37;100290.11;;;14.36;63.37
59873;BME280;50750;51.636;4.948;2023-03-25T05:25:08;100299.58;;;14.37;62.96
59873;BME280;50750;51.636;4.948;2023-03-25T05:27:36;100300.80;;;14.38;63.12
59873;BME280;50750;51.636;4.948;2023-03-25T05:30:04;100300.95;;;14.38;63.27
59873;BME280;50750;51.636;4.948;2023-03-25T05:32:31;100303.27;;;14.38;63.07
59873;BME280;50750;51.636;4.948;2023-03-25T05:34:59;100307.31;;;14.38;63.24
59873;BME280;50750;51.636;4.948;2023-03-25T05:37:26;100305.56;;;14.37;63.14
59873;BME280;50750;51.636;4.948;2023-03-25T05:39:53;100301.86;;;14.37;63.34
59873;BME280;50750;51.636;4.948;2023-03-25T05:42:20;100304.36;;;14.37;63.05
59873;BME280;50750;51.636;4.948;2023-03-25T05:44:52;100304.02;;;14.36;63.22
59873;BME280;50750;51.636;4.948;2023-03-25T05:47:20;100310.79;;;14.35;63.05
59873;BME280;50750;51.636;4.948;2023-03-25T05:49:49;100314.34;;;14.34;63.02
59873;BME280;50750;51.636;4.948;2023-03-25T05:52:17;100319.85;;;14.34;63.14
59873;BME280;50750;51.636;4.948;2023-03-25T05:54:45;100321.11;;;14.33;63.09
59873;BME280;50750;51.636;4.948;2023-03-25T05:57:15;100325.23;;;14.32;63.08
59873;BME280;50750;51.636;4.948;2023-03-25T05:59:42;100331.77;;;14.31;63.20
59873;BME280;50750;51.636;4.948;2023-03-25T06:02:14;100330.10;;;14.30;63.08
59873;BME280;50750;51.636;4.948;2023-03-25T06:04:42;100330.62;;;14.30;63.18
59873;BME280;50750;51.636;4.948;2023-03-25T06:07:09;100335.48;;;14.31;63.27
59873;BME280;50750;51.636;4.948;2023-03-25T06:09:45;100331.58;;;14.32;63.20
59873;BME280;50750;51.636;4.948;2023-03-25T06:12:16;100330.49;;;14.32;63.03
59873;BME280;50750;51.636;4.948;2023-03-25T06:14:46;100328.51;;;14.33;63.14
59873;BME280;50750;51.636;4.948;2023-03-25T06:17:15;100329.19;;;14.33;62.82
59873;BME280;50750;51.636;4.948;2023-03-25T06:19:44;100328.47;;;14.33;62.92
59873;BME280;50750;51.636;4.948;2023-03-25T06:22:11;100332.84;;;14.34;62.93
59873;BME280;50750;51.636;4.948;2023-03-25T06:24:39;100335.50;;;14.34;62.97
59873;BME280;50750;51.636;4.948;2023-03-25T06:27:11;100340.31;;;14.33;62.93
59873;BME280;50750;51.636;4.948;2023-03-25T06:29:38;100342.08;;;14.33;62.78
59873;BME280;50750;51.636;4.948;2023-03-25T06:32:08;100341.58;;;14.33;62.69
59873;BME280;50750;51.636;4.948;2023-03-25T06:34:35;100344.59;;;14.32;62.85
59873;BME280;50750;51.636;4.948;2023-03-25T06:37:02;100346.73;;;14.31;62.84
59873;BME280;50750;51.636;4.948;2023-03-25T06:39:29;100354.19;;;14.30;62.84
59873;BME280;50750;51.636;4.948;2023-03-25T06:41:59;100354.95;;;14.29;62.67
59873;BME280;50750;51.636;4.948;2023-03-25T06:44:26;100349.02;;;14.28;62.88
59873;BME280;50750;51.636;4.948;2023-03-25T06:46:53;100355.04;;;14.28;62.80
59873;BME280;50750;51.636;4.948;2023-03-25T06:49:19;100358.24;;;14.27;63.12
59873;BME280;50750;51.636;4.948;2023-03-25T06:51:46;100353.20;;;14.26;62.71
59873;BME280;50750;51.636;4.948;2023-03-25T06:54:13;100355.11;;;14.26;62.78
59873;BME280;50750;51.636;4.948;2023-03-25T06:56:40;100358.63;;;14.26;62.80
59873;BME280;50750;51.636;4.948;2023-03-25T06:59:07;100363.55;;;14.27;62.66
59873;BME280;50750;51.636;4.948;2023-03-25T07:01:33;100360.71;;;14.27;62.83
59873;BME280;50750;51.636;4.948;2023-03-25T07:04:00;100362.28;;;14.27;62.83
59873;BME280;50750;51.636;4.948;2023-03-25T07:06:26;100368.27;;;14.27;62.88
59873;BME280;50750;51.636;4.948;2023-03-25T07:08:53;100366.32;;;14.28;62.82
59873;BME280;50750;51.636;4.948;2023-03-25T07:11:25;100364.73;;;14.28;62.75
59873;BME280;50750;51.636;4.948;2023-03-25T07:13:52;100365.45;;;14.27;62.91
59873;BME280;50750;51.636;4.948;2023-03-25T07:16:21;100369.70;;;14.27;62.68
59873;BME280;50750;51.636;4.948;2023-03-25T07:18:48;100370.61;;;14.26;62.76
59873;BME280;50750;51.636;4.948;2023-03-25T07:21:20;100370.79;;;14.26;62.85
59873;BME280;50750;51.636;4.948;2023-03-25T07:23:47;100371.38;;;14.25;62.85
59873;BME280;50750;51.636;4.948;2023-03-25T07:26:14;100374.20;;;14.25;63.04
59873;BME280;50750;51.636;4.948;2023-03-25T07:28:41;100369.49;;;14.24;62.78
59873;BME280;50750;51.636;4.948;2023-03-25T07:31:13;100376.39;;;14.24;62.93
59873;BME280;50750;51.636;4.948;2023-03-25T07:33:40;100375.58;;;14.23;62.81
59873;BME280;50750;51.636;4.948;2023-03-25T07:36:08;100378.98;;;14.21;62.72
59873;BME280;50750;51.636;4.948;2023-03-25T07:38:36;100382.37;;;14.21;62.79
59873;BME280;50750;51.636;4.948;2023-03-25T07:41:05;100385.92;;;14.20;62.93
59873;BME280;50750;51.636;4.948;2023-03-25T07:43:31;100388.02;;;14.20;63.08
59873;BME280;50750;51.636;4.948;2023-03-25T07:45:58;100390.48;;;14.20;62.96
59873;BME280;50750;51.636;4.948;2023-03-25T07:48:25;100387.81;;;14.21;62.79
59873;BME280;50750;51.636;4.948;2023-03-25T07:50:53;100396.23;;;14.21;62.89
59873;BME280;50750;51.636;4.948;2023-03-25T07:53:20;100402.22;;;14.22;62.92
59873;BME280;50750;51.636;4.948;2023-03-25T07:55:47;100398.33;;;14.22;62.74
59873;BME280;50750;51.636;4.948;2023-03-25T07:58:16;100402.55;;;14.22;62.73
59873;BME280;50750;51.636;4.948;2023-03-25T08:00:44;100405.75;;;14.22;63.03
59873;BME280;50750;51.636;4.948;2023-03-25T08:03:12;100405.25;;;14.21;62.78
59873;BME280;50750;51.636;4.948;2023-03-25T08:05:45;100409.67;;;14.20;62.74
59873;BME280;50750;51.636;4.948;2023-03-25T08:08:13;100420.24;;;14.20;62.78
59873;BME280;50750;51.636;4.948;2023-03-25T08:10:42;100419.40;;;14.20;62.95
59873;BME280;50750;51.636;4.948;2023-03-25T08:13:09;100419.95;;;14.19;62.91
59873;BME280;50750;51.636;4.948;2023-03-25T08:15:36;100418.59;;;14.18;62.69
59873;BME280;50750;51.636;4.948;2023-03-25T08:18:03;100423.35;;;14.18;62.97
59873;BME280;50750;51.636;4.948;2023-03-25T08:20:35;100427.98;;;14.17;62.89
59873;BME280;50750;51.636;4.948;2023-03-25T08:23:02;100431.02;;;14.17;62.84
59873;BME280;50750;51.636;4.948;2023-03-25T08:25:29;100427.34;;;14.15;63.10
59873;BME280;50750;51.636;4.948;2023-03-25T08:27:56;100425.80;;;14.15;62.96
59873;BME280;50750;51.636;4.948;2023-03-25T08:30:23;100430.02;;;14.15;63.20
59873;BME280;50750;51.636;4.948;2023-03-25T08:32:49;100432.43;;;14.16;63.20
59873;BME280;50750;51.636;4.948;2023-03-25T08:35:22;100430.60;;;14.18;62.86
59873;BME280;50750;51.636;4.948;2023-03-25T08:37:49;100428.09;;;14.18;63.01
59873;BME280;50750;51.636;4.948;2023-03-25T08:40:16;100432.64;;;14.19;62.99
59873;BME280;50750;51.636;4.948;2023-03-25T08:42:43;100437.25;;;14.18;62.94
59873;BME280;50750;51.636;4.948;2023-03-25T08:45:10;100434.83;;;14.18;62.76
59873;BME280;50750;51.636;4.948;2023-03-25T08:47:38;100432.04;;;14.17;62.95
59873;BME280;50750;51.636;4.948;2023-03-25T08:50:05;100430.27;;;14.17;63.11
59873;BME280;50750;51.636;4.948;2023-03-25T08:52:31;100428.70;;;14.17;63.28
59873;BME280;50750;51.636;4.948;2023-03-25T08:54:58;100427.77;;;14.18;63.46
59873;BME280;50750;51.636;4.948;2023-03-25T08:57:25;100425.48;;;14.18;63.47
59873;BME280;50750;51.636;4.948;2023-03-25T08:59:51;100428.13;;;14.18;63.30
59873;BME280;50750;51.636;4.948;2023-03-25T09:02:18;100420.63;;;14.17;63.09
59873;BME280;50750;51.636;4.948;2023-03-25T09:04:47;100434.63;;;14.14;63.04
59873;BME280;50750;51.636;4.948;2023-03-25T09:07:14;100431.23;;;14.12;62.71
59873;BME280;50750;51.636;4.948;2023-03-25T09:09:41;100431.32;;;14.10;62.75
59873;BME280;50750;51.636;4.948;2023-03-25T09:12:08;100431.04;;;14.09;62.96
59873;BME280;50750;51.636;4.948;2023-03-25T09:14:37;100432.48;;;14.08;63.08
59873;BME280;50750;51.636;4.948;2023-03-25T09:17:04;100432.63;;;14.09;63.31
59873;BME280;50750;51.636;4.948;2023-03-25T09:19:33;100435.89;;;14.10;63.04
59873;BME280;50750;51.636;4.948;2023-03-25T09:22:00;100436.06;;;14.11;63.25
59873;BME280;50750;51.636;4.948;2023-03-25T09:24:27;100440.38;;;14.12;63.36
59873;BME280;50750;51.636;4.948;2023-03-25T09:26:53;100441.38;;;14.13;63.34
59873;BME280;50750;51.636;4.948;2023-03-25T09:29:20;100446.27;;;14.14;63.26
59873;BME280;50750;51.636;4.948;2023-03-25T09:31:46;100447.10;;;14.15;63.28
59873;BME280;50750;51.636;4.948;2023-03-25T09:34:13;100448.48;;;14.16;63.38
59873;BME280;50750;51.636;4.948;2023-03-25T09:36:40;100450.41;;;14.15;63.28
59873;BME280;50750;51.636;4.948;2023-03-25T09:39:07;100447.21;;;14.16;63.28
59873;BME280;50750;51.636;4.948;2023-03-25T09:47:20;100447.27;;;14.15;63.25
59873;BME280;50750;51.636;4.948;2023-03-25T09:49:56;100452.02;;;14.15;63.24
59873;BME280;50750;51.636;4.948;2023-03-25T09:52:46;100446.40;;;14.15;63.43
59873;BME280;50750;51.636;4.948;2023-03-25T09:55:18;100454.52;;;14.15;63.38
59873;BME280;50750;51.636;4.948;2023-03-25T09:57:47;100455.30;;;14.13;63.30
59873;BME280;50750;51.636;4.948;2023-03-25T10:00:25;100456.59;;;14.12;63.44
59873;BME280;50750;51.636;4.948;2023-03-25T10:06:36;100463.57;;;14.13;63.56
59873;BME280;50750;51.636;4.948;2023-03-25T10:16:42;100465.00;;;14.16;63.15
59873;BME280;50750;51.636;4.948;2023-03-25T10:25:00;100460.54;;;14.17;63.11
59873;BME280;50750;51.636;4.948;2023-03-25T10:27:34;100471.48;;;14.17;63.30
59873;BME280;50750;51.636;4.948;2023-03-25T10:32:57;100469.18;;;14.17;63.09
59873;BME280;50750;51.636;4.948;2023-03-25T10:35:27;100467.11;;;14.17;63.20
59873;BME280;50750;51.636;4.948;2023-03-25T10:38:01;100470.62;;;14.17;63.13
59873;BME280;50750;51.636;4.948;2023-03-25T10:40:34;100474.04;;;14.15;62.20
59873;BME280;50750;51.636;4.948;2023-03-25T10:45:34;100476.62;;;14.12;61.98
59873;BME280;50750;51.636;4.948;2023-03-25T10:48:10;100484.97;;;14.11;61.93
59873;BME280;50750;51.636;4.948;2023-03-25T10:50:39;100480.25;;;14.11;62.06
59873;BME280;50750;51.636;4.948;2023-03-25T10:53:18;100481.14;;;14.10;62.04
59873;BME280;50750;51.636;4.948;2023-03-25T10:55:47;100482.40;;;14.10;62.09
59873;BME280;50750;51.636;4.948;2023-03-25T10:58:18;100491.21;;;14.10;62.26
59873;BME280;50750;51.636;4.948;2023-03-25T11:00:46;100477.52;;;14.09;62.33
59873;BME280;50750;51.636;4.948;2023-03-25T11:03:18;100485.95;;;14.09;62.11
59873;BME280;50750;51.636;4.948;2023-03-25T11:05:47;100496.16;;;14.09;62.19
59873;BME280;50750;51.636;4.948;2023-03-25T11:08:14;100505.61;;;14.11;62.06
59873;BME280;50750;51.636;4.948;2023-03-25T11:10:46;100513.13;;;14.11;62.10
59873;BME280;50750;51.636;4.948;2023-03-25T11:13:14;100515.00;;;14.13;61.87
59873;BME280;50750;51.636;4.948;2023-03-25T11:15:42;100516.00;;;14.14;62.01
59873;BME280;50750;51.636;4.948;2023-03-25T11:18:26;100510.30;;;14.15;61.91
59873;BME280;50750;51.636;4.948;2023-03-25T11:21:21;100504.81;;;14.15;61.77
59873;BME280;50750;51.636;4.948;2023-03-25T11:23:49;100500.59;;;14.16;61.74
59873;BME280;50750;51.636;4.948;2023-03-25T11:26:26;100506.74;;;14.16;61.83
59873;BME280;50750;51.636;4.948;2023-03-25T11:29:00;100508.85;;;14.16;62.05
59873;BME280;50750;51.636;4.948;2023-03-25T11:31:28;100505.48;;;14.16;62.10
59873;BME280;50750;51.636;4.948;2023-03-25T11:34:21;100499.69;;;14.16;62.25
59873;BME280;50750;51.636;4.948;2023-03-25T11:41:59;100504.98;;;14.16;62.20
59873;BME280;50750;51.636;4.948;2023-03-25T11:44:33;100500.74;;;14.16;62.22
59873;BME280;50750;51.636;4.948;2023-03-25T11:47:04;100496.36;;;14.16;62.24
59873;BME280;50750;51.636;4.948;2023-03-25T11:49:36;100489.33;;;14.15;62.19
59873;BME280;50750;51.636;4.948;2023-03-25T11:52:13;100495.02;;;14.14;62.31
59873;BME280;50750;51.636;4.948;2023-03-25T11:54:43;100488.64;;;14.15;62.30
59873;BME280;50750;51.636;4.948;2023-03-25T11:57:13;100487.10;;;14.14;62.35
59873;BME280;50750;51.636;4.948;2023-03-25T11:59:47;100492.86;;;14.15;62.26
59873;BME280;50750;51.636;4.948;2023-03-25T12:02:27;100493.73;;;14.16;62.41
59873;BME280;50750;51.636;4.948;2023-03-25T12:10:15;100493.33;;;14.20;62.45
59873;BME280;50750;51.636;4.948;2023-03-25T12:13:06;100493.81;;;14.21;62.30
59873;BME280;50750;51.636;4.948;2023-03-25T12:15:40;100495.31;;;14.23;62.32
59873;BME280;50750;51.636;4.948;2023-03-25T12:21:13;100496.27;;;14.25;62.26
59873;BME280;50750;51.636;4.948;2023-03-25T12:26:33;100498.32;;;14.26;62.25
59873;BME280;50750;51.636;4.948;2023-03-25T12:32:05;100503.45;;;14.25;62.14
59873;BME280;50750;51.636;4.948;2023-03-25T12:34:45;100506.13;;;14.25;62.40
59873;BME280;50750;51.636;4.948;2023-03-25T12:43:05;100511.24;;;14.24;62.08
59873;BME280;50750;51.636;4.948;2023-03-25T12:48:15;100509.89;;;14.23;62.25
59873;BME280;50750;51.636;4.948;2023-03-25T12:51:08;100507.29;;;14.23;62.07
59873;BME280;50750;51.636;4.948;2023-03-25T12:54:18;100516.81;;;14.22;62.04
59873;BME280;50750;51.636;4.948;2023-03-25T13:07:41;100528.04;;;14.20;62.55
59873;BME280;50750;51.636;4.948;2023-03-25T13:12:51;100520.55;;;14.21;62.46
59873;BME280;50750;51.636;4.948;2023-03-25T13:18:00;100526.10;;;14.23;62.09
59873;BME280;50750;51.636;4.948;2023-03-25T13:20:34;100533.97;;;14.24;62.29
59873;BME280;50750;51.636;4.948;2023-03-25T13:23:05;100522.84;;;14.25;62.32
59873;BME280;50750;51.636;4.948;2023-03-25T13:28:44;100523.66;;;14.26;61.87
59873;BME280;50750;51.636;4.948;2023-03-25T13:31:16;100529.47;;;14.26;62.11
59873;BME280;50750;51.636;4.948;2023-03-25T13:33:48;100528.23;;;14.27;62.36
59873;BME280;50750;51.636;4.948;2023-03-25T13:36:28;100526.10;;;14.27;62.49
59873;BME280;50750;51.636;4.948;2023-03-25T13:39:14;100531.73;;;14.27;62.48
59873;BME280;50750;51.636;4.948;2023-03-25T13:41:52;100525.03;;;14.27;62.58
59873;BME280;50750;51.636;4.948;2023-03-25T13:44:34;100526.07;;;14.27;62.46
59873;BME280;50750;51.636;4.948;2023-03-25T13:49:58;100539.63;;;14.27;62.62
59873;BME280;50750;51.636;4.948;2023-03-25T13:52:29;100536.23;;;14.28;62.44
59873;BME280;50750;51.636;4.948;2023-03-25T13:55:01;100537.27;;;14.28;62.50
59873;BME280;50750;51.636;4.948;2023-03-25T14:02:49;100535.10;;;14.30;62.53
59873;BME280;50750;51.636;4.948;2023-03-25T14:05:32;100541.41;;;14.30;62.49
59873;BME280;50750;51.636;4.948;2023-03-25T14:14:14;100547.17;;;14.35;62.43
59873;BME280;50750;51.636;4.948;2023-03-25T14:16:51;100551.52;;;14.36;62.38
59873;BME280;50750;51.636;4.948;2023-03-25T14:19:34;100551.63;;;14.38;62.46
59873;BME280;50750;51.636;4.948;2023-03-25T14:22:12;100551.79;;;14.38;62.43
59873;BME280;50750;51.636;4.948;2023-03-25T14:24:39;100562.52;;;14.38;62.46
59873;BME280;50750;51.636;4.948;2023-03-25T14:30:01;100565.25;;;14.40;62.34
59873;BME280;50750;51.636;4.948;2023-03-25T14:32:38;100565.78;;;14.40;62.40
59873;BME280;50750;51.636;4.948;2023-03-25T14:48:38;100577.14;;;14.38;62.65
59873;BME280;50750;51.636;4.948;2023-03-25T14:51:44;100583.14;;;14.38;62.54
59873;BME280;50750;51.636;4.948;2023-03-25T14:57:03;100584.60;;;14.36;62.68
59873;BME280;50750;51.636;4.948;2023-03-25T14:59:37;100587.61;;;14.36;62.69
59873;BME280;50750;51.636;4.948;2023-03-25T15:02:13;100577.63;;;14.35;62.66
59873;BME280;50750;51.636;4.948;2023-03-25T15:04:42;100583.46;;;14.35;62.55
59873;BME280;50750;51.636;4.948;2023-03-25T15:07:13;100586.62;;;14.35;62.66
59873;BME280;50750;51.636;4.948;2023-03-25T15:09:52;100592.71;;;14.36;62.61
59873;BME280;50750;51.636;4.948;2023-03-25T15:12:22;100588.80;;;14.37;62.53
59873;BME280;50750;51.636;4.948;2023-03-25T15:14:55;100581.00;;;14.38;62.59
59873;BME280;50750;51.636;4.948;2023-03-25T15:17:44;100592.59;;;14.39;62.49
59873;BME280;50750;51.636;4.948;2023-03-25T15:25:45;100593.55;;;14.41;62.35
59873;BME280;50750;51.636;4.948;2023-03-25T15:36:43;100592.79;;;14.42;62.04
59873;BME280;50750;51.636;4.948;2023-03-25T15:39:28;100597.71;;;14.42;62.12
59873;BME280;50750;51.636;4.948;2023-03-25T15:53:26;100611.20;;;14.41;62.28
59873;BME280;50750;51.636;4.948;2023-03-25T15:56:18;100614.20;;;14.40;62.49